Time;durP1;ratioP1;P1;durP2;ratioP2;P2;SDS_P1;SDS_P2;PMS_P1;PMS_P2;Temp;Humidity;BMP_temperature;BMP_pressure;BME280_temperature;BME280_humidity;BME280_pressure;Samples;Min_cycle;Max_cycle;Signal;HPM_P1;HPM_P2
2021/05/11 04:43:11;;;;;;;;;;;;;;;8.02;100.00;98055.66;1758093;77;21077;-60
2021/05/11 04:45:47;;;;;;;;;;;;;;;8.25;100.00;98049.72;1875138;76;20599;-62
2021/05/11 04:48:22;;;;;;;;;;;;;;;8.37;100.00;98041.92;1848906;74;20645;-60
2021/05/11 04:50:57;;;;;;;;;;;;;;;8.51;100.00;98041.52;1875044;75;20567;-63
2021/05/11 04:53:33;;;;;;;;;;;;;;;8.64;100.00;98045.78;1875008;76;20654;-64
2021/05/11 04:56:08;;;;;;;;;;;;;;;8.79;99.55;98042.19;1825733;77;20719;-63
2021/05/11 04:58:44;;;;;;;;;;;;;;;8.92;98.95;98035.96;1827705;77;20590;-60
2021/05/11 05:01:19;;;;;;;;;;;;;;;9.05;98.09;98031.80;1829991;76;20582;-60
2021/05/11 05:03:58;;;;;;;;;;;;;;;9.17;97.38;98037.03;1865551;75;20597;-61
2021/05/11 05:06:43;;;;;;;;;;;;;;;9.25;96.84;98040.13;1833784;77;20508;-63
2021/05/11 05:09:18;;;;;;;;;;;;;;;9.44;95.88;98037.38;1844813;76;20278;-62
2021/05/11 05:11:53;;;;;;;;;;;;;;;9.54;95.37;98036.27;1867584;75;20662;-69
2021/05/11 05:14:29;;;;;;;;;;;;;;;9.64;95.29;98034.67;1851506;76;20636;-64
2021/05/11 05:17:04;;;;;;;;;;;;;;;9.74;95.01;98041.93;1856562;75;20641;-66
2021/05/11 05:19:40;;;;;;;;;;;;;;;9.84;94.04;98043.97;1872216;74;20714;-70
2021/05/11 05:22:16;;;;;;;;;;;;;;;9.90;93.38;98037.78;1825048;77;20732;-63
2021/05/11 05:27:47;;;;;;;;;;;;;;;10.14;92.60;98030.92;1811515;77;20620;-69
2021/05/11 05:30:30;;;;;;;;;;;;;;;10.20;92.50;98034.97;1825545;77;20612;-66
2021/05/11 05:33:07;;;;;;;;;;;;;;;10.36;92.61;98032.39;1850335;75;20704;-65
2021/05/11 05:35:45;;;;;;;;;;;;;;;10.48;92.85;98034.95;1803111;77;20695;-65
2021/05/11 05:38:20;;;;;;;;;;;;;;;10.60;91.43;98038.82;1809172;76;20579;-68
2021/05/11 05:44:06;;;;;;;;;;;;;;;10.83;88.84;98036.05;1847758;75;20572;-67
2021/05/11 05:46:42;;;;;;;;;;;;;;;10.89;88.10;98035.09;1818317;77;20780;-68
2021/05/11 05:49:35;;;;;;;;;;;;;;;10.93;87.59;98042.80;1788010;78;20489;-71
2021/05/11 05:52:09;;;;;;;;;;;;;;;11.06;87.06;98037.72;1849888;76;20599;-68
2021/05/11 05:54:50;;;;;;;;;;;;;;;11.12;86.52;98034.92;1855640;75;20585;-67
2021/05/11 05:57:25;;;;;;;;;;;;;;;11.22;86.02;98037.72;1849213;75;20566;-67
2021/05/11 06:00:00;;;;;;;;;;;;;;;11.31;84.72;98032.81;1855265;75;21121;-69
2021/05/11 06:03:18;;;;;;;;;;;;;;;11.40;85.20;98032.69;1848038;75;20585;-71
2021/05/11 06:05:45;;;;;;;;;;;;;;;11.49;84.73;98030.44;1855835;75;20713;-68
2021/05/11 06:08:20;;;;;;;;;;;;;;;11.63;84.19;98032.47;1850485;75;20693;-67
2021/05/11 06:20:45;;;;;;;;;;;;;;;12.17;81.49;98024.70;1861432;74;20328;-65
2021/05/11 06:23:32;;;;;;;;;;;;;;;12.32;81.17;98024.83;1850686;74;20577;-68
2021/05/11 06:26:09;;;;;;;;;;;;;;;12.44;80.42;98020.23;1801881;77;20792;-69
2021/05/11 06:28:45;;;;;;;;;;;;;;;12.55;79.53;98029.53;1852700;75;20583;-66
2021/05/11 06:31:20;;;;;;;;;;;;;;;12.69;78.20;98012.25;1849786;75;20700;-70
2021/05/11 06:33:56;;;;;;;;;;;;;;;12.83;78.15;98018.69;1849117;76;20974;-68
2021/05/11 06:36:53;;;;;;;;;;;;;;;12.96;76.76;98013.01;1849276;75;20759;-70
2021/05/11 06:39:29;;;;;;;;;;;;;;;13.06;76.19;98017.54;1851552;75;20903;-67
2021/05/11 06:42:05;;;;;;;;;;;;;;;13.12;76.00;98013.88;1807537;77;20754;-66
2021/05/11 06:45:05;;;;;;;;;;;;;;;13.16;76.01;98012.37;1782518;78;20448;-64
2021/05/11 06:53:18;;;;;;;;;;;;;;;13.49;75.22;98009.91;1792269;77;20552;-66
2021/05/11 06:55:54;;;;;;;;;;;;;;;13.63;74.31;98006.54;1847280;75;20602;-68
2021/05/11 07:07:14;;;;;;;;;;;;;;;13.92;72.05;98000.30;1836475;77;20462;-66
2021/05/11 07:15:53;;;;;;;;;;;;;;;14.40;71.92;97997.02;1802178;78;20670;-67
2021/05/11 07:18:29;;;;;;;;;;;;;;;14.52;71.05;97995.43;1803456;77;20905;-69
2021/05/11 07:21:15;;;;;;;;;;;;;;;14.58;70.53;97987.76;1776857;79;20657;-66
2021/05/11 07:23:50;;;;;;;;;;;;;;;14.79;70.22;97995.43;1805452;77;20686;-67
2021/05/11 07:26:29;;;;;;;;;;;;;;;14.93;69.84;97987.74;1839473;76;20643;-67
2021/05/11 07:31:52;;;;;;;;;;;;;;;15.18;68.32;97983.74;1803489;78;20707;-69
2021/05/11 07:34:28;;;;;;;;;;;;;;;15.32;68.23;97983.18;1864223;75;20594;-67
2021/05/11 07:37:06;;;;;;;;;;;;;;;15.41;67.53;97979.72;1847975;75;20543;-67
2021/05/11 07:39:45;;;;;;;;;;;;;;;15.53;67.58;97978.11;1850211;75;20843;-66
2021/05/11 07:42:30;;;;;;;;;;;;;;;15.63;67.53;97984.70;1818139;77;20554;-70
2021/05/11 07:45:07;;;;;;;;;;;;;;;15.82;66.10;97981.69;1848952;75;20700;-67
2021/05/11 08:02:02;;;;;;;;;;;;;;;16.61;62.80;97966.09;1779927;77;20740;-66
2021/05/11 08:15:57;;;;;;;;;;;;;;;17.03;58.43;97955.36;1848347;76;20709;-72
2021/05/11 08:18:48;;;;;;;;;;;;;;;17.11;57.01;97955.54;1820114;77;20583;-65
2021/05/11 08:27:35;;;;;;;;;;;;;;;17.48;55.91;97935.47;1806740;77;20792;-66
2021/05/11 08:30:18;;;;;;;;;;;;;;;17.54;55.11;97933.00;1781032;78;20585;-67
2021/05/11 08:32:53;;;;;;;;;;;;;;;17.71;55.50;97933.35;1850915;75;20922;-68
2021/05/11 08:35:39;;;;;;;;;;;;;;;17.76;55.53;97931.16;1817154;77;20602;-70
2021/05/11 08:38:13;;;;;;;;;;;;;;;17.91;56.74;97926.42;1801399;77;20740;-68
2021/05/11 08:40:59;;;;;;;;;;;;;;;17.95;56.94;97926.09;1782730;78;20472;-68
2021/05/11 08:43:44;;;;;;;;;;;;;;;18.10;56.51;97917.10;1813024;77;20870;-65
2021/05/11 08:46:27;;;;;;;;;;;;;;;18.15;56.68;97917.58;1783667;78;20478;-68
2021/05/11 08:49:04;;;;;;;;;;;;;;;18.30;55.84;97915.45;1799018;77;20551;-64
2021/05/11 08:51:57;;;;;;;;;;;;;;;18.33;55.54;97916.22;1782739;78;20603;-67
2021/05/11 09:04:36;;;;;;;;;;;;;;;18.75;50.23;97907.82;1849829;75;20588;-64
2021/05/11 09:06:18;;;;;;;;;;;;;;;18.95;51.03;97900.79;1853197;75;20605;-63
2021/05/11 09:26:09;;;;;;;;;;;;;;;19.60;47.71;97897.92;1855124;75;21331;-67
2021/05/11 09:28:53;;;;;;;;;;;;;;;19.62;46.76;97898.42;1819196;76;20594;-69
2021/05/11 09:34:45;;;;;;;;;;;;;;;;;;;;;
2021/05/11 09:55:31;;;;;;;;;;;;;;;20.25;46.48;97881.51;1802599;78;20700;-68
2021/05/11 09:58:06;;;;;;;;;;;;;;;20.25;46.84;97874.84;1851955;75;20703;-69
2021/05/11 10:48:40;;;;;;;;;;;;;;;21.32;41.47;97840.23;1849753;75;20832;-66
2021/05/11 10:51:28;;;;;;;;;;;;;;;21.36;41.39;97833.73;1830820;76;20797;-69
2021/05/11 10:54:07;;;;;;;;;;;;;;;21.49;42.63;97818.09;1858211;75;20568;-69
2021/05/11 10:56:43;;;;;;;;;;;;;;;21.59;43.08;97826.36;1847873;75;20556;-66
2021/05/11 10:59:29;;;;;;;;;;;;;;;21.71;43.87;97831.87;1863118;74;20694;-67
2021/05/11 11:02:27;;;;;;;;;;;;;;;21.75;43.09;97829.61;1837694;77;20629;-67
2021/05/11 11:05:03;;;;;;;;;;;;;;;21.87;42.17;97826.83;1861086;74;20626;-70
2021/05/11 11:07:39;;;;;;;;;;;;;;;21.91;41.90;97824.54;1859303;75;20558;-66
2021/05/11 11:10:29;;;;;;;;;;;;;;;21.93;40.12;97824.23;1834546;76;20596;-71
2021/05/11 11:13:28;;;;;;;;;;;;;;;22.06;41.21;97819.28;1847731;75;20555;-74
2021/05/11 11:16:04;;;;;;;;;;;;;;;22.11;40.68;97815.91;1858276;76;20503;-71
2021/05/11 11:18:40;;;;;;;;;;;;;;;22.17;39.81;97822.66;1817584;75;20577;-70
2021/05/11 11:24:06;;;;;;;;;;;;;;;22.20;40.87;97818.00;1814390;77;20458;-71
2021/05/11 11:26:48;;;;;;;;;;;;;;;22.34;41.23;97815.67;1851908;75;20591;-70
2021/05/11 11:29:23;;;;;;;;;;;;;;;22.39;40.41;97800.24;1777628;77;20545;-72
2021/05/11 11:31:59;;;;;;;;;;;;;;;22.41;40.73;97812.74;1857681;76;20560;-69
2021/05/11 11:34:39;;;;;;;;;;;;;;;22.43;39.30;97812.42;1850877;76;20618;-73
2021/05/11 11:37:27;;;;;;;;;;;;;;;22.43;40.23;97811.09;1828725;76;20456;-69
2021/05/11 11:40:05;;;;;;;;;;;;;;;22.52;39.73;97803.82;1809733;78;20678;-70
2021/05/11 11:42:42;;;;;;;;;;;;;;;22.55;39.34;97809.31;1829796;77;20690;-69
2021/05/11 11:45:30;;;;;;;;;;;;;;;22.50;39.18;97797.44;1792558;78;20611;-74
2021/05/11 11:48:05;;;;;;;;;;;;;;;22.55;39.49;97793.78;1873301;74;20778;-68
2021/05/11 11:50:41;;;;;;;;;;;;;;;22.64;40.27;97803.92;1866232;74;20764;-70
2021/05/11 11:53:18;;;;;;;;;;;;;;;22.70;40.05;97795.14;1826668;76;20688;-65
2021/05/11 11:58:43;;;;;;;;;;;;;;;22.79;39.81;97790.56;1850448;76;20748;-68
2021/05/11 12:01:37;;;;;;;;;;;;;;;22.87;39.86;97795.89;1856866;75;20614;-66
2021/05/11 12:04:13;;;;;;;;;;;;;;;22.90;39.37;97789.90;1824281;76;20562;-64
2021/05/11 12:06:52;;;;;;;;;;;;;;;22.93;39.13;97783.87;1856921;76;20587;-64
2021/05/11 12:09:39;;;;;;;;;;;;;;;22.93;39.30;97783.87;1851950;75;20740;-63
2021/05/11 12:12:16;;;;;;;;;;;;;;;22.99;38.54;97784.47;1816143;77;20556;-64
2021/05/11 12:14:51;;;;;;;;;;;;;;;22.96;38.71;97775.20;1858272;74;20633;-68
2021/05/11 12:17:31;;;;;;;;;;;;;;;23.02;39.27;97779.02;1852864;76;20548;-70
2021/05/11 12:20:23;;;;;;;;;;;;;;;23.05;38.40;97768.45;1856331;74;20606;-72
2021/05/11 12:23:16;;;;;;;;;;;;;;;23.02;39.46;97765.06;1762146;79;20615;-69
2021/05/11 12:25:58;;;;;;;;;;;;;;;23.12;38.08;97764.70;1819150;76;20586;-78
2021/05/11 12:28:42;;;;;;;;;;;;;;;23.10;38.80;97753.50;1787023;79;20549;-76
2021/05/11 12:31:43;;;;;;;;;;;;;;;23.11;39.07;97752.95;1867973;75;20624;-71
2021/05/11 12:34:23;;;;;;;;;;;;;;;23.15;40.80;97751.18;1803728;76;20653;-68
2021/05/11 12:37:10;;;;;;;;;;;;;;;23.17;40.80;97747.07;1777926;79;20986;-69
2021/05/11 12:39:54;;;;;;;;;;;;;;;23.25;40.39;97734.16;1812698;77;20706;-69
2021/05/11 12:42:31;;;;;;;;;;;;;;;23.31;39.60;97735.53;1864310;75;20717;-71
2021/05/11 12:45:21;;;;;;;;;;;;;;;23.33;39.50;97733.87;1824480;77;20611;-62
2021/05/11 12:48:01;;;;;;;;;;;;;;;23.42;40.06;97739.92;1855455;75;20674;-64
2021/05/11 12:50:48;;;;;;;;;;;;;;;23.45;39.28;97740.62;1822792;76;20676;-62
2021/05/11 13:00:08;;;;;;;;;;;;;;;23.52;37.85;97724.02;1858616;75;20560;-66
2021/05/11 13:02:50;;;;;;;;;;;;;;;23.51;38.45;97728.60;1860474;75;20715;-63
2021/05/11 13:19:45;;;;;;;;;;;;;;;23.40;37.32;97707.30;1855288;76;20601;-69
2021/05/11 13:26:07;;;;;;;;;;;;;;;23.43;36.22;97704.50;1858842;75;20759;-66
2021/05/11 13:28:49;;;;;;;;;;;;;;;23.49;37.27;97700.53;1800088;78;20517;-69
2021/05/11 13:31:41;;;;;;;;;;;;;;;23.53;36.99;97696.88;1784639;78;20887;-69
2021/05/11 13:34:13;;;;;;;;;;;;;;;23.73;37.44;97697.38;1815911;77;20640;-65
2021/05/11 13:37:08;;;;;;;;;;;;;;;23.94;36.96;97692.50;1839515;75;20632;-69
2021/05/11 13:39:58;;;;;;;;;;;;;;;24.09;38.38;97695.33;1820899;77;20641;-63
2021/05/11 13:42:33;;;;;;;;;;;;;;;24.37;36.96;97683.96;1852855;75;20622;-66
2021/05/11 13:45:09;;;;;;;;;;;;;;;24.57;36.34;97683.61;1810764;78;20572;-66
2021/05/11 13:51:05;;;;;;;;;;;;;;;24.93;36.77;97672.84;1859090;75;20546;-64
2021/05/11 13:53:42;;;;;;;;;;;;;;;25.17;35.95;97669.30;1830392;75;20648;-64
2021/05/11 13:56:36;;;;;;;;;;;;;;;25.33;35.65;97674.18;1815174;77;20825;-64
2021/05/11 14:04:52;;;;;;;;;;;;;;;25.73;34.74;97661.22;1854091;75;20855;-65
2021/05/11 14:07:38;;;;;;;;;;;;;;;25.73;34.41;97662.00;1835414;77;20628;-67
2021/05/11 14:10:13;;;;;;;;;;;;;;;25.86;34.12;97647.34;1854175;76;20606;-70
